sensor_id;sensor_type;location;lat;lon;timestamp;temperature;humidity
10543;DHT22;5320;50.046;10.314;2022-07-23T00:01:19;23.00;1.00
10543;DHT22;5320;50.046;10.314;2022-07-23T00:03:45;23.10;1.00
10543;DHT22;5320;50.046;10.314;2022-07-23T00:06:11;23.00;1.00
10543;DHT22;5320;50.046;10.314;2022-07-23T00:08:36;23.00;1.00
10543;DHT22;5320;50.046;10.314;2022-07-23T00:11:02;23.00;90.00
10543;DHT22;5320;50.046;10.314;2022-07-23T00:13:28;23.00;1.00
10543;DHT22;5320;50.046;10.314;2022-07-23T00:15:54;23.00;48.30
10543;DHT22;5320;50.046;10.314;2022-07-23T00:18:21;23.00;7.00
10543;DHT22;5320;50.046;10.314;2022-07-23T00:20:47;23.00;1.00
10543;DHT22;5320;50.046;10.314;2022-07-23T00:23:13;23.10;38.30
10543;DHT22;5320;50.046;10.314;2022-07-23T00:25:38;23.00;96.60
10543;DHT22;5320;50.046;10.314;2022-07-23T00:28:05;22.90;1.00
10543;DHT22;5320;50.046;10.314;2022-07-23T00:30:31;22.80;1.00
10543;DHT22;5320;50.046;10.314;2022-07-23T00:33:00;22.80;1.00
10543;DHT22;5320;50.046;10.314;2022-07-23T00:35:30;22.70;1.00
10543;DHT22;5320;50.046;10.314;2022-07-23T00:37:57;22.60;1.00
10543;DHT22;5320;50.046;10.314;2022-07-23T00:40:24;22.60;1.00
10543;DHT22;5320;50.046;10.314;2022-07-23T00:42:50;22.50;1.00
10543;DHT22;5320;50.046;10.314;2022-07-23T00:45:16;22.50;1.00
10543;DHT22;5320;50.046;10.314;2022-07-23T00:47:42;22.50;1.00
10543;DHT22;5320;50.046;10.314;2022-07-23T00:50:09;22.50;1.00
10543;DHT22;5320;50.046;10.314;2022-07-23T00:52:36;22.60;99.90
10543;DHT22;5320;50.046;10.314;2022-07-23T00:55:03;22.60;99.90
10543;DHT22;5320;50.046;10.314;2022-07-23T00:57:30;22.60;99.90
10543;DHT22;5320;50.046;10.314;2022-07-23T00:59:56;22.50;99.90
10543;DHT22;5320;50.046;10.314;2022-07-23T01:02:24;22.50;94.10
10543;DHT22;5320;50.046;10.314;2022-07-23T01:04:50;22.40;99.90
10543;DHT22;5320;50.046;10.314;2022-07-23T01:07:16;22.40;1.00
10543;DHT22;5320;50.046;10.314;2022-07-23T01:09:44;22.40;1.00
10543;DHT22;5320;50.046;10.314;2022-07-23T01:12:10;22.40;1.00
10543;DHT22;5320;50.046;10.314;2022-07-23T01:14:36;22.30;1.00
10543;DHT22;5320;50.046;10.314;2022-07-23T01:17:01;22.30;1.00
10543;DHT22;5320;50.046;10.314;2022-07-23T01:19:27;22.30;1.00
10543;DHT22;5320;50.046;10.314;2022-07-23T01:21:53;22.30;1.00
10543;DHT22;5320;50.046;10.314;2022-07-23T01:24:20;21.90;1.00
10543;DHT22;5320;50.046;10.314;2022-07-23T01:26:47;21.60;1.00
10543;DHT22;5320;50.046;10.314;2022-07-23T01:29:13;21.70;1.00
10543;DHT22;5320;50.046;10.314;2022-07-23T01:31:40;21.70;1.00
10543;DHT22;5320;50.046;10.314;2022-07-23T01:34:07;21.70;99.90
10543;DHT22;5320;50.046;10.314;2022-07-23T01:36:33;21.80;1.00
10543;DHT22;5320;50.046;10.314;2022-07-23T01:38:59;21.70;99.90
10543;DHT22;5320;50.046;10.314;2022-07-23T01:41:25;21.60;1.00
10543;DHT22;5320;50.046;10.314;2022-07-23T01:43:51;21.50;11.40
10543;DHT22;5320;50.046;10.314;2022-07-23T01:46:17;21.40;99.90
10543;DHT22;5320;50.046;10.314;2022-07-23T01:48:42;21.20;1.00
10543;DHT22;5320;50.046;10.314;2022-07-23T01:51:08;21.10;1.00
10543;DHT22;5320;50.046;10.314;2022-07-23T01:53:34;21.10;8.90
10543;DHT22;5320;50.046;10.314;2022-07-23T01:56:00;21.20;1.00
10543;DHT22;5320;50.046;10.314;2022-07-23T01:58:27;21.30;1.00
10543;DHT22;5320;50.046;10.314;2022-07-23T02:00:54;21.40;1.00
10543;DHT22;5320;50.046;10.314;2022-07-23T02:03:19;21.40;1.00
10543;DHT22;5320;50.046;10.314;2022-07-23T02:05:45;21.30;99.90
10543;DHT22;5320;50.046;10.314;2022-07-23T02:08:11;21.10;1.00
10543;DHT22;5320;50.046;10.314;2022-07-23T02:10:37;21.10;1.00
10543;DHT22;5320;50.046;10.314;2022-07-23T02:13:03;21.20;1.00
10543;DHT22;5320;50.046;10.314;2022-07-23T02:15:28;21.30;1.00
10543;DHT22;5320;50.046;10.314;2022-07-23T02:17:55;21.40;99.90
10543;DHT22;5320;50.046;10.314;2022-07-23T02:20:21;21.40;31.50
10543;DHT22;5320;50.046;10.314;2022-07-23T02:22:47;21.50;1.00
10543;DHT22;5320;50.046;10.314;2022-07-23T02:25:13;21.50;1.00
10543;DHT22;5320;50.046;10.314;2022-07-23T02:27:39;21.50;1.00
10543;DHT22;5320;50.046;10.314;2022-07-23T02:30:05;21.50;1.00
10543;DHT22;5320;50.046;10.314;2022-07-23T02:32:32;21.30;35.70
10543;DHT22;5320;50.046;10.314;2022-07-23T02:34:58;21.30;1.00
10543;DHT22;5320;50.046;10.314;2022-07-23T02:37:24;21.30;1.00
10543;DHT22;5320;50.046;10.314;2022-07-23T02:39:49;21.30;99.90
10543;DHT22;5320;50.046;10.314;2022-07-23T02:42:16;21.30;1.00
10543;DHT22;5320;50.046;10.314;2022-07-23T02:44:42;21.30;99.90
10543;DHT22;5320;50.046;10.314;2022-07-23T02:47:08;21.50;1.00
10543;DHT22;5320;50.046;10.314;2022-07-23T02:49:33;21.60;99.90
10543;DHT22;5320;50.046;10.314;2022-07-23T02:51:59;21.50;99.90
10543;DHT22;5320;50.046;10.314;2022-07-23T02:54:26;21.40;39.00
10543;DHT22;5320;50.046;10.314;2022-07-23T02:56:53;21.50;99.90
10543;DHT22;5320;50.046;10.314;2022-07-23T02:59:19;21.50;99.90
10543;DHT22;5320;50.046;10.314;2022-07-23T03:01:45;21.40;99.90
10543;DHT22;5320;50.046;10.314;2022-07-23T03:04:11;21.00;99.90
10543;DHT22;5320;50.046;10.314;2022-07-23T03:06:38;20.90;83.00
10543;DHT22;5320;50.046;10.314;2022-07-23T03:09:05;20.90;1.00
10543;DHT22;5320;50.046;10.314;2022-07-23T03:11:30;21.00;1.00
10543;DHT22;5320;50.046;10.314;2022-07-23T03:13:56;21.10;99.90
10543;DHT22;5320;50.046;10.314;2022-07-23T03:16:22;21.10;99.90
10543;DHT22;5320;50.046;10.314;2022-07-23T03:18:48;20.80;1.00
10543;DHT22;5320;50.046;10.314;2022-07-23T03:21:14;20.70;99.90
10543;DHT22;5320;50.046;10.314;2022-07-23T03:23:39;20.70;19.10
10543;DHT22;5320;50.046;10.314;2022-07-23T03:26:05;20.80;1.00
10543;DHT22;5320;50.046;10.314;2022-07-23T03:28:31;20.90;1.00
10543;DHT22;5320;50.046;10.314;2022-07-23T03:30:57;20.60;1.00
10543;DHT22;5320;50.046;10.314;2022-07-23T03:33:23;20.50;1.00
10543;DHT22;5320;50.046;10.314;2022-07-23T03:35:49;20.70;1.00
10543;DHT22;5320;50.046;10.314;2022-07-23T03:38:14;20.70;1.00
10543;DHT22;5320;50.046;10.314;2022-07-23T03:40:40;20.80;1.00
10543;DHT22;5320;50.046;10.314;2022-07-23T03:43:06;20.90;1.00
10543;DHT22;5320;50.046;10.314;2022-07-23T03:45:32;21.00;1.00
10543;DHT22;5320;50.046;10.314;2022-07-23T03:47:58;21.00;1.00
10543;DHT22;5320;50.046;10.314;2022-07-23T03:50:25;21.10;99.90
10543;DHT22;5320;50.046;10.314;2022-07-23T03:52:51;21.10;99.90
10543;DHT22;5320;50.046;10.314;2022-07-23T03:55:16;21.20;99.90
10543;DHT22;5320;50.046;10.314;2022-07-23T03:57:42;21.20;1.00
10543;DHT22;5320;50.046;10.314;2022-07-23T04:00:10;21.10;1.00
10543;DHT22;5320;50.046;10.314;2022-07-23T04:02:37;21.10;99.90
10543;DHT22;5320;50.046;10.314;2022-07-23T04:05:03;21.10;99.90
10543;DHT22;5320;50.046;10.314;2022-07-23T04:07:30;21.00;3.50
10543;DHT22;5320;50.046;10.314;2022-07-23T04:09:56;21.00;99.90
10543;DHT22;5320;50.046;10.314;2022-07-23T04:12:23;21.00;99.90
10543;DHT22;5320;50.046;10.314;2022-07-23T04:14:49;21.00;41.20
10543;DHT22;5320;50.046;10.314;2022-07-23T04:17:15;20.90;1.00
10543;DHT22;5320;50.046;10.314;2022-07-23T04:19:41;20.80;1.00
10543;DHT22;5320;50.046;10.314;2022-07-23T04:22:08;20.80;1.00
10543;DHT22;5320;50.046;10.314;2022-07-23T04:24:34;20.80;1.00
10543;DHT22;5320;50.046;10.314;2022-07-23T04:27:00;20.80;1.00
10543;DHT22;5320;50.046;10.314;2022-07-23T04:29:26;20.70;23.20
10543;DHT22;5320;50.046;10.314;2022-07-23T04:31:52;20.70;99.90
10543;DHT22;5320;50.046;10.314;2022-07-23T04:34:18;20.60;1.00
10543;DHT22;5320;50.046;10.314;2022-07-23T04:36:44;20.60;1.00
10543;DHT22;5320;50.046;10.314;2022-07-23T04:39:10;20.60;1.00
10543;DHT22;5320;50.046;10.314;2022-07-23T04:41:36;20.60;1.00
10543;DHT22;5320;50.046;10.314;2022-07-23T04:44:02;20.60;1.00
10543;DHT22;5320;50.046;10.314;2022-07-23T04:46:28;20.70;1.00
10543;DHT22;5320;50.046;10.314;2022-07-23T04:48:54;20.70;1.00
10543;DHT22;5320;50.046;10.314;2022-07-23T04:51:20;20.60;1.00
10543;DHT22;5320;50.046;10.314;2022-07-23T04:53:46;20.60;1.00
10543;DHT22;5320;50.046;10.314;2022-07-23T04:56:15;20.60;1.00
10543;DHT22;5320;50.046;10.314;2022-07-23T04:58:41;20.60;1.00
10543;DHT22;5320;50.046;10.314;2022-07-23T05:01:06;20.60;1.00
10543;DHT22;5320;50.046;10.314;2022-07-23T05:03:32;20.60;1.00
10543;DHT22;5320;50.046;10.314;2022-07-23T05:05:58;20.50;1.00
10543;DHT22;5320;50.046;10.314;2022-07-23T05:08:24;20.50;1.00
10543;DHT22;5320;50.046;10.314;2022-07-23T05:10:50;20.40;1.00
10543;DHT22;5320;50.046;10.314;2022-07-23T05:13:16;20.30;20.20
10543;DHT22;5320;50.046;10.314;2022-07-23T05:15:42;20.30;17.60
10543;DHT22;5320;50.046;10.314;2022-07-23T05:18:08;20.30;14.90
10543;DHT22;5320;50.046;10.314;2022-07-23T05:20:34;20.40;1.00
10543;DHT22;5320;50.046;10.314;2022-07-23T05:23:00;20.50;1.00
10543;DHT22;5320;50.046;10.314;2022-07-23T05:25:26;20.50;3.60
10543;DHT22;5320;50.046;10.314;2022-07-23T05:27:52;20.30;54.40
10543;DHT22;5320;50.046;10.314;2022-07-23T05:30:17;20.30;93.30
10543;DHT22;5320;50.046;10.314;2022-07-23T05:32:43;20.50;1.00
10543;DHT22;5320;50.046;10.314;2022-07-23T05:35:09;20.70;1.00
10543;DHT22;5320;50.046;10.314;2022-07-23T05:37:36;20.90;1.00
10543;DHT22;5320;50.046;10.314;2022-07-23T05:40:07;21.00;1.00
10543;DHT22;5320;50.046;10.314;2022-07-23T05:42:38;21.00;1.00
10543;DHT22;5320;50.046;10.314;2022-07-23T05:45:05;21.00;1.00
10543;DHT22;5320;50.046;10.314;2022-07-23T05:47:49;21.00;1.00
10543;DHT22;5320;50.046;10.314;2022-07-23T05:50:16;21.00;1.00
10543;DHT22;5320;50.046;10.314;2022-07-23T05:52:42;20.90;1.00
10543;DHT22;5320;50.046;10.314;2022-07-23T05:55:09;20.80;1.00
10543;DHT22;5320;50.046;10.314;2022-07-23T05:57:35;20.80;1.00
10543;DHT22;5320;50.046;10.314;2022-07-23T06:00:04;20.70;1.00
10543;DHT22;5320;50.046;10.314;2022-07-23T06:02:30;20.60;12.10
10543;DHT22;5320;50.046;10.314;2022-07-23T06:04:56;20.70;1.00
10543;DHT22;5320;50.046;10.314;2022-07-23T06:07:22;20.80;1.00
10543;DHT22;5320;50.046;10.314;2022-07-23T06:09:47;20.80;1.00
10543;DHT22;5320;50.046;10.314;2022-07-23T06:12:15;20.70;1.00
10543;DHT22;5320;50.046;10.314;2022-07-23T06:14:41;20.50;99.90
10543;DHT22;5320;50.046;10.314;2022-07-23T06:17:08;20.50;99.90
10543;DHT22;5320;50.046;10.314;2022-07-23T06:19:34;20.30;99.90
10543;DHT22;5320;50.046;10.314;2022-07-23T06:22:00;20.30;99.90
10543;DHT22;5320;50.046;10.314;2022-07-23T06:24:26;20.30;99.90
10543;DHT22;5320;50.046;10.314;2022-07-23T06:26:52;20.40;99.90
10543;DHT22;5320;50.046;10.314;2022-07-23T06:29:17;20.40;99.90
10543;DHT22;5320;50.046;10.314;2022-07-23T06:31:43;20.40;99.90
10543;DHT22;5320;50.046;10.314;2022-07-23T06:34:09;20.30;99.90
10543;DHT22;5320;50.046;10.314;2022-07-23T06:36:35;20.50;99.90
10543;DHT22;5320;50.046;10.314;2022-07-23T06:39:01;20.60;99.90
10543;DHT22;5320;50.046;10.314;2022-07-23T06:41:26;20.40;99.90
10543;DHT22;5320;50.046;10.314;2022-07-23T06:43:52;20.40;99.90
10543;DHT22;5320;50.046;10.314;2022-07-23T06:46:18;20.50;99.90
10543;DHT22;5320;50.046;10.314;2022-07-23T06:48:44;20.40;99.90
10543;DHT22;5320;50.046;10.314;2022-07-23T06:51:10;20.30;99.90
10543;DHT22;5320;50.046;10.314;2022-07-23T06:53:35;20.30;99.90
10543;DHT22;5320;50.046;10.314;2022-07-23T06:56:01;20.20;99.90
10543;DHT22;5320;50.046;10.314;2022-07-23T06:58:27;20.10;99.90
10543;DHT22;5320;50.046;10.314;2022-07-23T07:00:52;20.10;99.90
10543;DHT22;5320;50.046;10.314;2022-07-23T07:03:18;20.10;99.90
10543;DHT22;5320;50.046;10.314;2022-07-23T07:05:45;20.10;99.90
10543;DHT22;5320;50.046;10.314;2022-07-23T07:08:11;20.10;99.90
10543;DHT22;5320;50.046;10.314;2022-07-23T07:10:37;20.10;99.90
10543;DHT22;5320;50.046;10.314;2022-07-23T07:13:02;20.10;99.90
10543;DHT22;5320;50.046;10.314;2022-07-23T07:15:28;20.20;99.90
10543;DHT22;5320;50.046;10.314;2022-07-23T07:17:54;20.10;99.90
10543;DHT22;5320;50.046;10.314;2022-07-23T07:20:20;20.00;99.90
10543;DHT22;5320;50.046;10.314;2022-07-23T07:22:45;20.00;99.90
10543;DHT22;5320;50.046;10.314;2022-07-23T07:25:11;20.10;99.90
10543;DHT22;5320;50.046;10.314;2022-07-23T07:27:37;20.10;99.90
10543;DHT22;5320;50.046;10.314;2022-07-23T07:30:05;20.10;99.90
10543;DHT22;5320;50.046;10.314;2022-07-23T07:32:32;19.90;99.90
10543;DHT22;5320;50.046;10.314;2022-07-23T07:34:58;19.90;99.90
10543;DHT22;5320;50.046;10.314;2022-07-23T07:37:24;19.90;99.90
10543;DHT22;5320;50.046;10.314;2022-07-23T07:39:50;19.80;99.90
10543;DHT22;5320;50.046;10.314;2022-07-23T07:42:15;19.90;99.90
10543;DHT22;5320;50.046;10.314;2022-07-23T07:44:41;19.90;99.90
10543;DHT22;5320;50.046;10.314;2022-07-23T07:47:07;19.90;99.90
10543;DHT22;5320;50.046;10.314;2022-07-23T07:49:33;19.90;99.90
10543;DHT22;5320;50.046;10.314;2022-07-23T07:51:59;20.00;99.90
10543;DHT22;5320;50.046;10.314;2022-07-23T07:54:24;20.10;99.90
10543;DHT22;5320;50.046;10.314;2022-07-23T07:56:50;20.10;99.90
10543;DHT22;5320;50.046;10.314;2022-07-23T07:59:16;20.00;99.90
10543;DHT22;5320;50.046;10.314;2022-07-23T08:01:43;20.00;99.90
10543;DHT22;5320;50.046;10.314;2022-07-23T08:04:09;20.10;99.90
10543;DHT22;5320;50.046;10.314;2022-07-23T08:06:34;20.20;99.90
10543;DHT22;5320;50.046;10.314;2022-07-23T08:09:00;20.10;99.90
10543;DHT22;5320;50.046;10.314;2022-07-23T08:11:26;20.10;99.90
10543;DHT22;5320;50.046;10.314;2022-07-23T08:13:52;20.40;99.90
10543;DHT22;5320;50.046;10.314;2022-07-23T08:16:18;20.40;99.90
10543;DHT22;5320;50.046;10.314;2022-07-23T08:18:43;20.30;99.90
10543;DHT22;5320;50.046;10.314;2022-07-23T08:21:09;20.60;99.90
10543;DHT22;5320;50.046;10.314;2022-07-23T08:23:35;21.00;99.90
10543;DHT22;5320;50.046;10.314;2022-07-23T08:26:01;20.90;99.90
10543;DHT22;5320;50.046;10.314;2022-07-23T08:28:27;21.00;99.90
10543;DHT22;5320;50.046;10.314;2022-07-23T08:30:53;21.10;99.90
10543;DHT22;5320;50.046;10.314;2022-07-23T08:33:19;21.20;99.90
10543;DHT22;5320;50.046;10.314;2022-07-23T08:35:47;21.50;99.90
10543;DHT22;5320;50.046;10.314;2022-07-23T08:38:15;21.30;99.90
10543;DHT22;5320;50.046;10.314;2022-07-23T08:40:44;21.40;99.90
10543;DHT22;5320;50.046;10.314;2022-07-23T08:43:12;21.60;28.80
10543;DHT22;5320;50.046;10.314;2022-07-23T08:45:44;21.90;1.00
10543;DHT22;5320;50.046;10.314;2022-07-23T08:48:25;21.90;1.00
10543;DHT22;5320;50.046;10.314;2022-07-23T08:50:52;21.90;1.00
10543;DHT22;5320;50.046;10.314;2022-07-23T08:53:21;22.30;1.00
10543;DHT22;5320;50.046;10.314;2022-07-23T08:55:52;22.60;1.00
10543;DHT22;5320;50.046;10.314;2022-07-23T08:58:19;22.30;1.00
10543;DHT22;5320;50.046;10.314;2022-07-23T09:00:46;22.40;1.00
10543;DHT22;5320;50.046;10.314;2022-07-23T09:05:42;22.90;99.90
10543;DHT22;5320;50.046;10.314;2022-07-23T09:08:13;23.10;46.50
10543;DHT22;5320;50.046;10.314;2022-07-23T09:10:52;23.00;1.00
10543;DHT22;5320;50.046;10.314;2022-07-23T09:18:59;23.00;1.00
10543;DHT22;5320;50.046;10.314;2022-07-23T09:21:33;22.90;1.00
10543;DHT22;5320;50.046;10.314;2022-07-23T09:26:44;23.40;99.90
10543;DHT22;5320;50.046;10.314;2022-07-23T09:29:17;23.40;1.00
10543;DHT22;5320;50.046;10.314;2022-07-23T09:32:01;23.20;99.90
10543;DHT22;5320;50.046;10.314;2022-07-23T09:34:35;23.10;99.90
10543;DHT22;5320;50.046;10.314;2022-07-23T09:37:12;22.90;1.00
10543;DHT22;5320;50.046;10.314;2022-07-23T09:39:39;23.00;99.90
10543;DHT22;5320;50.046;10.314;2022-07-23T09:42:20;23.10;99.90
10543;DHT22;5320;50.046;10.314;2022-07-23T09:44:51;23.00;1.00
10543;DHT22;5320;50.046;10.314;2022-07-23T09:47:18;23.20;1.00
10543;DHT22;5320;50.046;10.314;2022-07-23T09:50:07;23.50;69.60
10543;DHT22;5320;50.046;10.314;2022-07-23T09:52:44;23.30;99.90
10543;DHT22;5320;50.046;10.314;2022-07-23T09:55:10;23.40;99.90
10543;DHT22;5320;50.046;10.314;2022-07-23T09:57:36;23.60;1.00
10543;DHT22;5320;50.046;10.314;2022-07-23T10:00:06;24.10;1.00
10543;DHT22;5320;50.046;10.314;2022-07-23T10:02:33;23.90;1.00
10543;DHT22;5320;50.046;10.314;2022-07-23T10:05:01;24.10;1.00
10543;DHT22;5320;50.046;10.314;2022-07-23T10:07:31;24.40;99.90
10543;DHT22;5320;50.046;10.314;2022-07-23T10:09:59;24.20;1.00
10543;DHT22;5320;50.046;10.314;2022-07-23T10:12:26;24.10;1.00
10543;DHT22;5320;50.046;10.314;2022-07-23T10:14:52;24.60;96.50
10543;DHT22;5320;50.046;10.314;2022-07-23T10:17:18;24.90;1.00
10543;DHT22;5320;50.046;10.314;2022-07-23T10:19:44;24.90;99.90
10543;DHT22;5320;50.046;10.314;2022-07-23T10:22:15;24.40;1.00
10543;DHT22;5320;50.046;10.314;2022-07-23T10:33:48;25.10;1.00
10543;DHT22;5320;50.046;10.314;2022-07-23T10:36:44;24.60;99.90
10543;DHT22;5320;50.046;10.314;2022-07-23T10:39:28;25.20;1.00
10543;DHT22;5320;50.046;10.314;2022-07-23T10:42:16;25.60;99.90
10543;DHT22;5320;50.046;10.314;2022-07-23T10:44:46;25.60;99.90
10543;DHT22;5320;50.046;10.314;2022-07-23T10:47:27;26.20;1.00
10543;DHT22;5320;50.046;10.314;2022-07-23T10:58:01;26.90;1.00
10543;DHT22;5320;50.046;10.314;2022-07-23T11:00:35;26.60;1.00
10543;DHT22;5320;50.046;10.314;2022-07-23T11:03:06;27.00;99.90
10543;DHT22;5320;50.046;10.314;2022-07-23T11:05:48;27.10;53.70
10543;DHT22;5320;50.046;10.314;2022-07-23T11:08:16;26.40;99.90
10543;DHT22;5320;50.046;10.314;2022-07-23T11:16:16;26.50;1.00
10543;DHT22;5320;50.046;10.314;2022-07-23T11:23:59;26.30;1.00
10543;DHT22;5320;50.046;10.314;2022-07-23T11:32:18;26.70;1.00
10543;DHT22;5320;50.046;10.314;2022-07-23T11:34:48;26.60;1.00
10543;DHT22;5320;50.046;10.314;2022-07-23T11:37:37;26.60;1.00
10543;DHT22;5320;50.046;10.314;2022-07-23T11:40:10;26.40;1.00
10543;DHT22;5320;50.046;10.314;2022-07-23T11:42:38;26.30;1.00
10543;DHT22;5320;50.046;10.314;2022-07-23T11:45:06;26.80;1.00
10543;DHT22;5320;50.046;10.314;2022-07-23T11:47:34;26.80;1.00
10543;DHT22;5320;50.046;10.314;2022-07-23T11:50:03;26.80;1.00
10543;DHT22;5320;50.046;10.314;2022-07-23T11:52:29;27.00;99.90
10543;DHT22;5320;50.046;10.314;2022-07-23T11:54:58;27.10;99.90
10543;DHT22;5320;50.046;10.314;2022-07-23T11:57:26;27.40;99.90
10543;DHT22;5320;50.046;10.314;2022-07-23T12:00:18;27.50;67.40
10543;DHT22;5320;50.046;10.314;2022-07-23T12:02:46;27.60;41.50
10543;DHT22;5320;50.046;10.314;2022-07-23T12:05:17;27.10;99.90
10543;DHT22;5320;50.046;10.314;2022-07-23T12:07:44;27.10;40.90
10543;DHT22;5320;50.046;10.314;2022-07-23T12:12:58;26.50;99.90
10543;DHT22;5320;50.046;10.314;2022-07-23T12:15:56;26.40;99.90
10543;DHT22;5320;50.046;10.314;2022-07-23T12:18:25;26.30;99.90
10543;DHT22;5320;50.046;10.314;2022-07-23T12:20:56;26.50;99.90
10543;DHT22;5320;50.046;10.314;2022-07-23T12:23:24;26.70;99.90
10543;DHT22;5320;50.046;10.314;2022-07-23T12:25:52;26.80;99.90
10543;DHT22;5320;50.046;10.314;2022-07-23T12:28:36;26.90;99.90
10543;DHT22;5320;50.046;10.314;2022-07-23T12:31:03;27.00;99.90
10543;DHT22;5320;50.046;10.314;2022-07-23T12:33:34;27.10;1.00
10543;DHT22;5320;50.046;10.314;2022-07-23T12:36:03;26.90;37.80
10543;DHT22;5320;50.046;10.314;2022-07-23T12:38:51;27.60;1.00
10543;DHT22;5320;50.046;10.314;2022-07-23T12:41:17;28.00;1.00
10543;DHT22;5320;50.046;10.314;2022-07-23T12:43:45;28.00;1.00
10543;DHT22;5320;50.046;10.314;2022-07-23T12:46:18;28.20;1.00
10543;DHT22;5320;50.046;10.314;2022-07-23T12:53:48;28.90;1.00
10543;DHT22;5320;50.046;10.314;2022-07-23T12:56:20;28.40;1.00
10543;DHT22;5320;50.046;10.314;2022-07-23T12:58:53;28.60;1.00
10543;DHT22;5320;50.046;10.314;2022-07-23T13:01:26;29.00;1.00
10543;DHT22;5320;50.046;10.314;2022-07-23T13:06:31;28.20;1.00
10543;DHT22;5320;50.046;10.314;2022-07-23T13:08:58;28.50;1.00
10543;DHT22;5320;50.046;10.314;2022-07-23T13:11:24;28.10;1.00
10543;DHT22;5320;50.046;10.314;2022-07-23T13:13:50;28.40;1.00
10543;DHT22;5320;50.046;10.314;2022-07-23T13:16:16;28.20;1.00
10543;DHT22;5320;50.046;10.314;2022-07-23T13:18:42;27.90;1.00
10543;DHT22;5320;50.046;10.314;2022-07-23T13:21:08;27.80;1.00
10543;DHT22;5320;50.046;10.314;2022-07-23T13:23:34;28.70;1.00
10543;DHT22;5320;50.046;10.314;2022-07-23T13:26:00;28.40;1.00
10543;DHT22;5320;50.046;10.314;2022-07-23T13:28:26;28.60;1.00
10543;DHT22;5320;50.046;10.314;2022-07-23T13:30:52;28.60;1.00
10543;DHT22;5320;50.046;10.314;2022-07-23T13:33:22;28.80;1.00
10543;DHT22;5320;50.046;10.314;2022-07-23T13:35:49;28.80;1.00
10543;DHT22;5320;50.046;10.314;2022-07-23T13:38:15;29.20;1.00
10543;DHT22;5320;50.046;10.314;2022-07-23T13:40:42;29.20;1.00
10543;DHT22;5320;50.046;10.314;2022-07-23T13:43:11;29.00;1.00
10543;DHT22;5320;50.046;10.314;2022-07-23T13:45:37;28.50;1.00
10543;DHT22;5320;50.046;10.314;2022-07-23T13:48:05;28.70;1.00
10543;DHT22;5320;50.046;10.314;2022-07-23T13:50:31;28.80;1.00
10543;DHT22;5320;50.046;10.314;2022-07-23T13:52:56;29.20;99.90
10543;DHT22;5320;50.046;10.314;2022-07-23T13:55:22;29.80;99.90
10543;DHT22;5320;50.046;10.314;2022-07-23T13:57:48;30.00;99.90
10543;DHT22;5320;50.046;10.314;2022-07-23T14:00:14;30.50;99.90
10543;DHT22;5320;50.046;10.314;2022-07-23T14:02:40;31.00;99.90
10543;DHT22;5320;50.046;10.314;2022-07-23T14:05:09;31.10;99.90
10543;DHT22;5320;50.046;10.314;2022-07-23T14:07:36;30.70;99.90
10543;DHT22;5320;50.046;10.314;2022-07-23T14:10:03;29.50;99.90
10543;DHT22;5320;50.046;10.314;2022-07-23T14:12:30;29.50;99.90
10543;DHT22;5320;50.046;10.314;2022-07-23T14:14:56;29.70;99.90
10543;DHT22;5320;50.046;10.314;2022-07-23T14:17:22;29.20;99.90
10543;DHT22;5320;50.046;10.314;2022-07-23T14:19:48;29.60;99.90
10543;DHT22;5320;50.046;10.314;2022-07-23T14:22:14;29.20;99.90
10543;DHT22;5320;50.046;10.314;2022-07-23T14:24:40;29.30;99.90
10543;DHT22;5320;50.046;10.314;2022-07-23T14:27:06;28.80;99.90
10543;DHT22;5320;50.046;10.314;2022-07-23T14:29:32;28.10;99.90
10543;DHT22;5320;50.046;10.314;2022-07-23T14:31:58;28.30;99.90
10543;DHT22;5320;50.046;10.314;2022-07-23T14:34:24;28.20;99.90
10543;DHT22;5320;50.046;10.314;2022-07-23T14:36:51;29.00;99.90
10543;DHT22;5320;50.046;10.314;2022-07-23T14:39:17;29.50;99.90
10543;DHT22;5320;50.046;10.314;2022-07-23T14:41:43;29.70;99.90
10543;DHT22;5320;50.046;10.314;2022-07-23T14:44:09;29.50;99.90
10543;DHT22;5320;50.046;10.314;2022-07-23T14:46:35;29.20;99.90
10543;DHT22;5320;50.046;10.314;2022-07-23T14:49:02;28.80;99.90
10543;DHT22;5320;50.046;10.314;2022-07-23T14:51:27;28.10;1.00
10543;DHT22;5320;50.046;10.314;2022-07-23T14:53:53;27.90;1.00
10543;DHT22;5320;50.046;10.314;2022-07-23T14:56:19;27.90;1.00
10543;DHT22;5320;50.046;10.314;2022-07-23T14:58:45;28.30;1.00
10543;DHT22;5320;50.046;10.314;2022-07-23T15:01:11;28.60;1.00
10543;DHT22;5320;50.046;10.314;2022-07-23T15:03:36;29.40;1.00
10543;DHT22;5320;50.046;10.314;2022-07-23T15:06:02;29.30;99.90
10543;DHT22;5320;50.046;10.314;2022-07-23T15:08:28;29.00;99.90
10543;DHT22;5320;50.046;10.314;2022-07-23T15:10:54;29.00;99.90
10543;DHT22;5320;50.046;10.314;2022-07-23T15:13:19;29.50;99.90
10543;DHT22;5320;50.046;10.314;2022-07-23T15:15:45;29.60;99.90
10543;DHT22;5320;50.046;10.314;2022-07-23T15:18:11;29.80;99.90
10543;DHT22;5320;50.046;10.314;2022-07-23T15:20:37;29.80;99.90
10543;DHT22;5320;50.046;10.314;2022-07-23T15:23:07;29.30;99.90
10543;DHT22;5320;50.046;10.314;2022-07-23T15:25:33;29.00;99.90
10543;DHT22;5320;50.046;10.314;2022-07-23T15:27:59;29.10;99.90
10543;DHT22;5320;50.046;10.314;2022-07-23T15:30:26;28.90;99.90
10543;DHT22;5320;50.046;10.314;2022-07-23T15:32:51;29.30;99.90
10543;DHT22;5320;50.046;10.314;2022-07-23T15:35:17;28.80;99.90
10543;DHT22;5320;50.046;10.314;2022-07-23T15:37:43;28.10;99.90
10543;DHT22;5320;50.046;10.314;2022-07-23T15:40:09;27.60;99.90
10543;DHT22;5320;50.046;10.314;2022-07-23T15:42:36;27.70;1.00
10543;DHT22;5320;50.046;10.314;2022-07-23T15:45:03;27.90;1.00
10543;DHT22;5320;50.046;10.314;2022-07-23T15:47:29;27.90;1.00
10543;DHT22;5320;50.046;10.314;2022-07-23T15:49:55;27.90;99.90
10543;DHT22;5320;50.046;10.314;2022-07-23T15:52:21;28.30;99.90
10543;DHT22;5320;50.046;10.314;2022-07-23T15:54:46;28.60;99.90
10543;DHT22;5320;50.046;10.314;2022-07-23T15:57:12;29.20;99.90
10543;DHT22;5320;50.046;10.314;2022-07-23T15:59:38;29.70;99.90
10543;DHT22;5320;50.046;10.314;2022-07-23T16:02:04;29.50;99.90
10543;DHT22;5320;50.046;10.314;2022-07-23T16:04:30;29.30;99.90
10543;DHT22;5320;50.046;10.314;2022-07-23T16:06:56;29.30;99.90
10543;DHT22;5320;50.046;10.314;2022-07-23T16:09:23;29.70;99.90
10543;DHT22;5320;50.046;10.314;2022-07-23T16:11:49;29.90;99.90
10543;DHT22;5320;50.046;10.314;2022-07-23T16:14:15;30.10;99.90
10543;DHT22;5320;50.046;10.314;2022-07-23T16:16:41;30.40;99.90
10543;DHT22;5320;50.046;10.314;2022-07-23T16:19:07;30.60;99.90
10543;DHT22;5320;50.046;10.314;2022-07-23T16:21:33;30.70;99.90
10543;DHT22;5320;50.046;10.314;2022-07-23T16:23:59;30.60;99.90
10543;DHT22;5320;50.046;10.314;2022-07-23T16:26:25;30.80;99.90
10543;DHT22;5320;50.046;10.314;2022-07-23T16:28:51;31.00;99.90
10543;DHT22;5320;50.046;10.314;2022-07-23T16:31:17;31.20;99.90
10543;DHT22;5320;50.046;10.314;2022-07-23T16:33:43;31.40;99.90